sensor_id;sensor_type;location;lat;lon;timestamp;pressure;altitude;pressure_sealevel;temperature;humidity
49999;BME280;68071;45.062;7.356;2023-07-28T00:00:43;95007.25;;;15.70;100.00
49999;BME280;68071;45.062;7.356;2023-07-28T00:03:47;95014.94;;;15.79;100.00
49999;BME280;68071;45.062;7.356;2023-07-28T00:06:51;95010.22;;;16.28;100.00
49999;BME280;68071;45.062;7.356;2023-07-28T00:09:55;95011.19;;;16.47;100.00
49999;BME280;68071;45.062;7.356;2023-07-28T00:12:59;94997.41;;;16.30;100.00
49999;BME280;68071;45.062;7.356;2023-07-28T00:16:03;95003.38;;;15.94;100.00
49999;BME280;68071;45.062;7.356;2023-07-28T00:19:08;94997.31;;;16.08;100.00
49999;BME280;68071;45.062;7.356;2023-07-28T00:22:12;94990.31;;;16.03;100.00
49999;BME280;68071;45.062;7.356;2023-07-28T00:25:15;94997.88;;;15.64;100.00
49999;BME280;68071;45.062;7.356;2023-07-28T00:28:19;94998.00;;;15.73;100.00
49999;BME280;68071;45.062;7.356;2023-07-28T00:31:24;95000.16;;;15.95;100.00
49999;BME280;68071;45.062;7.356;2023-07-28T00:34:28;95001.56;;;16.26;100.00
49999;BME280;68071;45.062;7.356;2023-07-28T00:37:32;95016.38;;;15.84;100.00
49999;BME280;68071;45.062;7.356;2023-07-28T00:40:37;95015.88;;;15.89;100.00
49999;BME280;68071;45.062;7.356;2023-07-28T00:43:41;95022.84;;;15.81;100.00
49999;BME280;68071;45.062;7.356;2023-07-28T00:46:45;95024.41;;;15.82;100.00
49999;BME280;68071;45.062;7.356;2023-07-28T00:49:49;95017.16;;;16.10;100.00
49999;BME280;68071;45.062;7.356;2023-07-28T00:52:55;95012.72;;;16.13;100.00
49999;BME280;68071;45.062;7.356;2023-07-28T00:55:58;95025.78;;;16.64;100.00
49999;BME280;68071;45.062;7.356;2023-07-28T00:59:02;95018.69;;;16.37;100.00
49999;BME280;68071;45.062;7.356;2023-07-28T01:02:07;95018.19;;;16.16;100.00
49999;BME280;68071;45.062;7.356;2023-07-28T01:05:11;95016.63;;;16.99;100.00
49999;BME280;68071;45.062;7.356;2023-07-28T01:08:28;95011.94;;;16.96;100.00
49999;BME280;68071;45.062;7.356;2023-07-28T01:11:33;94999.72;;;16.45;100.00
49999;BME280;68071;45.062;7.356;2023-07-28T01:14:39;95004.53;;;16.44;100.00
49999;BME280;68071;45.062;7.356;2023-07-28T01:17:43;95014.75;;;16.47;100.00
49999;BME280;68071;45.062;7.356;2023-07-28T01:20:47;95010.00;;;17.28;100.00
49999;BME280;68071;45.062;7.356;2023-07-28T01:24:21;94993.13;;;17.41;100.00
49999;BME280;68071;45.062;7.356;2023-07-28T01:27:32;94988.53;;;16.80;100.00
49999;BME280;68071;45.062;7.356;2023-07-28T01:30:36;94981.19;;;16.73;100.00
49999;BME280;68071;45.062;7.356;2023-07-28T01:33:40;94978.44;;;17.18;100.00
49999;BME280;68071;45.062;7.356;2023-07-28T01:36:44;94985.50;;;17.09;100.00
49999;BME280;68071;45.062;7.356;2023-07-28T01:39:48;94991.63;;;17.17;100.00
49999;BME280;68071;45.062;7.356;2023-07-28T01:42:51;94976.41;;;17.18;100.00
49999;BME280;68071;45.062;7.356;2023-07-28T01:45:55;94971.88;;;17.12;100.00
49999;BME280;68071;45.062;7.356;2023-07-28T01:48:59;94982.56;;;16.91;100.00
49999;BME280;68071;45.062;7.356;2023-07-28T01:52:03;94982.75;;;16.52;100.00
49999;BME280;68071;45.062;7.356;2023-07-28T01:55:08;94977.09;;;16.30;100.00
49999;BME280;68071;45.062;7.356;2023-07-28T01:58:12;94976.56;;;16.57;100.00
49999;BME280;68071;45.062;7.356;2023-07-28T02:01:16;94964.59;;;16.35;100.00
49999;BME280;68071;45.062;7.356;2023-07-28T02:04:20;94959.06;;;16.22;100.00
49999;BME280;68071;45.062;7.356;2023-07-28T02:07:24;94962.91;;;15.89;100.00
49999;BME280;68071;45.062;7.356;2023-07-28T02:10:29;94966.19;;;16.23;100.00
49999;BME280;68071;45.062;7.356;2023-07-28T02:13:33;94963.41;;;16.23;100.00
49999;BME280;68071;45.062;7.356;2023-07-28T02:16:40;94960.84;;;16.15;100.00
49999;BME280;68071;45.062;7.356;2023-07-28T02:19:43;94959.22;;;16.05;100.00
49999;BME280;68071;45.062;7.356;2023-07-28T02:22:47;94959.34;;;15.63;100.00
49999;BME280;68071;45.062;7.356;2023-07-28T02:25:51;94958.09;;;15.77;100.00
49999;BME280;68071;45.062;7.356;2023-07-28T02:28:55;94950.41;;;15.94;100.00
49999;BME280;68071;45.062;7.356;2023-07-28T02:31:59;94962.78;;;15.93;100.00
49999;BME280;68071;45.062;7.356;2023-07-28T02:35:03;94941.94;;;15.71;100.00
49999;BME280;68071;45.062;7.356;2023-07-28T02:38:08;94949.09;;;15.85;100.00
49999;BME280;68071;45.062;7.356;2023-07-28T02:41:11;94957.88;;;15.97;100.00
49999;BME280;68071;45.062;7.356;2023-07-28T02:44:15;94945.94;;;15.83;100.00
49999;BME280;68071;45.062;7.356;2023-07-28T02:47:19;94938.16;;;15.65;100.00
49999;BME280;68071;45.062;7.356;2023-07-28T02:50:23;94939.25;;;15.81;100.00
49999;BME280;68071;45.062;7.356;2023-07-28T02:53:27;94938.94;;;15.66;100.00
49999;BME280;68071;45.062;7.356;2023-07-28T02:56:31;94938.94;;;15.40;100.00
49999;BME280;68071;45.062;7.356;2023-07-28T02:59:38;94946.31;;;15.85;100.00
49999;BME280;68071;45.062;7.356;2023-07-28T03:02:43;94930.88;;;15.81;100.00
49999;BME280;68071;45.062;7.356;2023-07-28T03:05:51;94948.41;;;15.68;100.00
49999;BME280;68071;45.062;7.356;2023-07-28T03:09:09;94938.69;;;15.73;100.00
49999;BME280;68071;45.062;7.356;2023-07-28T03:12:29;94929.13;;;15.61;100.00
49999;BME280;68071;45.062;7.356;2023-07-28T03:15:33;94925.91;;;15.37;100.00
49999;BME280;68071;45.062;7.356;2023-07-28T03:18:36;94932.38;;;15.47;100.00
49999;BME280;68071;45.062;7.356;2023-07-28T03:21:40;94924.22;;;15.65;100.00
49999;BME280;68071;45.062;7.356;2023-07-28T03:24:44;94925.69;;;15.44;100.00
49999;BME280;68071;45.062;7.356;2023-07-28T03:27:50;94926.78;;;15.47;100.00
49999;BME280;68071;45.062;7.356;2023-07-28T03:30:53;94931.59;;;15.33;100.00
49999;BME280;68071;45.062;7.356;2023-07-28T03:33:58;94933.16;;;15.34;100.00
49999;BME280;68071;45.062;7.356;2023-07-28T03:37:04;94927.59;;;15.47;100.00
49999;BME280;68071;45.062;7.356;2023-07-28T03:40:08;94937.25;;;15.42;100.00
49999;BME280;68071;45.062;7.356;2023-07-28T03:43:22;94937.25;;;15.17;100.00
49999;BME280;68071;45.062;7.356;2023-07-28T03:46:26;94942.50;;;15.53;100.00
49999;BME280;68071;45.062;7.356;2023-07-28T03:49:30;94934.16;;;15.27;100.00
49999;BME280;68071;45.062;7.356;2023-07-28T03:52:34;94931.69;;;15.17;100.00
49999;BME280;68071;45.062;7.356;2023-07-28T03:55:38;94934.59;;;15.39;100.00
49999;BME280;68071;45.062;7.356;2023-07-28T03:58:42;94934.44;;;15.04;100.00
49999;BME280;68071;45.062;7.356;2023-07-28T04:01:46;94942.47;;;15.02;100.00
49999;BME280;68071;45.062;7.356;2023-07-28T04:04:55;94946.72;;;15.32;100.00
49999;BME280;68071;45.062;7.356;2023-07-28T04:07:59;94941.28;;;15.28;100.00
49999;BME280;68071;45.062;7.356;2023-07-28T04:11:03;94954.19;;;15.22;100.00
49999;BME280;68071;45.062;7.356;2023-07-28T04:14:07;94952.97;;;16.01;100.00
49999;BME280;68071;45.062;7.356;2023-07-28T04:17:11;94954.31;;;15.96;100.00
49999;BME280;68071;45.062;7.356;2023-07-28T04:20:15;94948.22;;;15.88;100.00
49999;BME280;68071;45.062;7.356;2023-07-28T04:23:19;94947.94;;;15.83;100.00
49999;BME280;68071;45.062;7.356;2023-07-28T04:26:24;94945.06;;;15.73;100.00
49999;BME280;68071;45.062;7.356;2023-07-28T04:29:35;94936.38;;;15.71;100.00
49999;BME280;68071;45.062;7.356;2023-07-28T04:32:43;94931.69;;;15.68;100.00
49999;BME280;68071;45.062;7.356;2023-07-28T04:35:52;94930.78;;;15.71;100.00
49999;BME280;68071;45.062;7.356;2023-07-28T04:39:00;94932.09;;;15.80;100.00
49999;BME280;68071;45.062;7.356;2023-07-28T04:42:04;94937.25;;;15.68;100.00
49999;BME280;68071;45.062;7.356;2023-07-28T04:45:08;94939.53;;;16.22;100.00
49999;BME280;68071;45.062;7.356;2023-07-28T04:48:13;94947.25;;;16.53;100.00
49999;BME280;68071;45.062;7.356;2023-07-28T04:51:17;94942.44;;;16.53;100.00
49999;BME280;68071;45.062;7.356;2023-07-28T04:54:56;94942.88;;;16.52;100.00
49999;BME280;68071;45.062;7.356;2023-07-28T04:58:00;94945.72;;;16.03;100.00
49999;BME280;68071;45.062;7.356;2023-07-28T05:01:13;94951.66;;;16.28;100.00
49999;BME280;68071;45.062;7.356;2023-07-28T05:04:19;94954.94;;;16.13;100.00
49999;BME280;68071;45.062;7.356;2023-07-28T05:07:23;94953.03;;;16.10;100.00
49999;BME280;68071;45.062;7.356;2023-07-28T05:10:27;94947.78;;;16.25;100.00
49999;BME280;68071;45.062;7.356;2023-07-28T05:13:31;94947.94;;;16.44;100.00
49999;BME280;68071;45.062;7.356;2023-07-28T05:16:34;94944.69;;;16.45;100.00
49999;BME280;68071;45.062;7.356;2023-07-28T05:19:41;94941.88;;;16.23;100.00
49999;BME280;68071;45.062;7.356;2023-07-28T05:22:48;94952.59;;;16.25;100.00
49999;BME280;68071;45.062;7.356;2023-07-28T05:25:53;94955.41;;;16.47;100.00
49999;BME280;68071;45.062;7.356;2023-07-28T05:28:57;94954.75;;;16.43;100.00
49999;BME280;68071;45.062;7.356;2023-07-28T05:32:01;94963.63;;;16.28;100.00
49999;BME280;68071;45.062;7.356;2023-07-28T05:35:12;94957.28;;;16.15;100.00
49999;BME280;68071;45.062;7.356;2023-07-28T05:38:16;94955.16;;;16.54;100.00
49999;BME280;68071;45.062;7.356;2023-07-28T05:41:20;94963.94;;;16.88;100.00
49999;BME280;68071;45.062;7.356;2023-07-28T05:44:24;94960.44;;;16.97;100.00
49999;BME280;68071;45.062;7.356;2023-07-28T05:47:28;94949.03;;;17.04;100.00
49999;BME280;68071;45.062;7.356;2023-07-28T05:50:38;94951.34;;;17.28;100.00
49999;BME280;68071;45.062;7.356;2023-07-28T05:53:41;94953.44;;;17.46;100.00
49999;BME280;68071;45.062;7.356;2023-07-28T05:56:46;94953.50;;;17.23;100.00
49999;BME280;68071;45.062;7.356;2023-07-28T05:59:50;94955.41;;;17.36;100.00
49999;BME280;68071;45.062;7.356;2023-07-28T06:02:54;94954.00;;;17.63;100.00
49999;BME280;68071;45.062;7.356;2023-07-28T06:06:18;94962.06;;;17.70;100.00
49999;BME280;68071;45.062;7.356;2023-07-28T06:09:23;94967.38;;;18.09;100.00
49999;BME280;68071;45.062;7.356;2023-07-28T06:12:27;94970.47;;;18.11;100.00
49999;BME280;68071;45.062;7.356;2023-07-28T06:15:34;94979.50;;;18.15;100.00
49999;BME280;68071;45.062;7.356;2023-07-28T06:18:40;94974.56;;;18.28;100.00
49999;BME280;68071;45.062;7.356;2023-07-28T06:21:52;94975.47;;;18.35;100.00
49999;BME280;68071;45.062;7.356;2023-07-28T06:24:57;94982.50;;;18.67;100.00
49999;BME280;68071;45.062;7.356;2023-07-28T06:28:01;94978.47;;;18.78;100.00
49999;BME280;68071;45.062;7.356;2023-07-28T06:31:04;94977.38;;;18.94;100.00
49999;BME280;68071;45.062;7.356;2023-07-28T06:34:09;94969.63;;;18.98;100.00
49999;BME280;68071;45.062;7.356;2023-07-28T06:37:13;94983.44;;;19.20;100.00
49999;BME280;68071;45.062;7.356;2023-07-28T06:40:18;94971.47;;;19.29;98.42
49999;BME280;68071;45.062;7.356;2023-07-28T06:43:22;94976.59;;;19.73;94.42
49999;BME280;68071;45.062;7.356;2023-07-28T06:46:28;94978.28;;;19.80;93.31
49999;BME280;68071;45.062;7.356;2023-07-28T06:49:33;94976.84;;;19.94;96.00
49999;BME280;68071;45.062;7.356;2023-07-28T06:52:40;94969.47;;;20.06;100.00
49999;BME280;68071;45.062;7.356;2023-07-28T06:55:44;94976.97;;;20.33;97.12
49999;BME280;68071;45.062;7.356;2023-07-28T06:58:48;94972.97;;;20.49;95.04
49999;BME280;68071;45.062;7.356;2023-07-28T07:01:52;94966.16;;;20.41;97.36
49999;BME280;68071;45.062;7.356;2023-07-28T07:04:56;94975.88;;;20.55;92.44
49999;BME280;68071;45.062;7.356;2023-07-28T07:08:00;94973.50;;;20.63;93.04
49999;BME280;68071;45.062;7.356;2023-07-28T07:11:05;94974.19;;;20.73;91.07
49999;BME280;68071;45.062;7.356;2023-07-28T07:14:09;94970.31;;;20.70;90.09
49999;BME280;68071;45.062;7.356;2023-07-28T07:17:13;94972.94;;;20.74;88.45
49999;BME280;68071;45.062;7.356;2023-07-28T07:20:17;94982.81;;;20.69;90.33
49999;BME280;68071;45.062;7.356;2023-07-28T07:23:21;94990.22;;;20.81;89.31
49999;BME280;68071;45.062;7.356;2023-07-28T07:26:26;94976.91;;;20.67;94.68
49999;BME280;68071;45.062;7.356;2023-07-28T07:29:29;94986.50;;;20.75;92.55
49999;BME280;68071;45.062;7.356;2023-07-28T07:32:33;94985.50;;;20.88;91.38
49999;BME280;68071;45.062;7.356;2023-07-28T07:35:38;94993.34;;;20.83;90.06
49999;BME280;68071;45.062;7.356;2023-07-28T07:38:42;94993.38;;;20.74;91.15
49999;BME280;68071;45.062;7.356;2023-07-28T07:41:47;94997.00;;;21.14;88.62
49999;BME280;68071;45.062;7.356;2023-07-28T07:44:51;94998.53;;;21.30;86.71
49999;BME280;68071;45.062;7.356;2023-07-28T07:47:55;95006.31;;;21.35;87.01
49999;BME280;68071;45.062;7.356;2023-07-28T07:50:59;95007.44;;;21.13;91.79
49999;BME280;68071;45.062;7.356;2023-07-28T07:54:03;95009.13;;;21.50;86.11
49999;BME280;68071;45.062;7.356;2023-07-28T07:57:07;95007.63;;;21.64;88.27
49999;BME280;68071;45.062;7.356;2023-07-28T08:00:11;95010.69;;;21.66;85.88
49999;BME280;68071;45.062;7.356;2023-07-28T08:03:19;95009.50;;;22.03;79.20
49999;BME280;68071;45.062;7.356;2023-07-28T08:06:22;95015.72;;;22.07;82.03
49999;BME280;68071;45.062;7.356;2023-07-28T08:09:26;95006.63;;;21.82;82.51
49999;BME280;68071;45.062;7.356;2023-07-28T08:12:31;95010.19;;;21.98;81.53
49999;BME280;68071;45.062;7.356;2023-07-28T08:15:35;95014.31;;;22.17;82.19
49999;BME280;68071;45.062;7.356;2023-07-28T08:18:39;95009.81;;;21.60;85.08
49999;BME280;68071;45.062;7.356;2023-07-28T08:21:43;95017.66;;;22.01;80.62
49999;BME280;68071;45.062;7.356;2023-07-28T08:24:47;95022.38;;;22.81;75.90
49999;BME280;68071;45.062;7.356;2023-07-28T08:27:51;95019.56;;;22.60;84.64
49999;BME280;68071;45.062;7.356;2023-07-28T08:30:56;95028.16;;;22.72;79.24
49999;BME280;68071;45.062;7.356;2023-07-28T08:34:00;95029.09;;;22.84;76.31
49999;BME280;68071;45.062;7.356;2023-07-28T08:37:04;95027.13;;;22.69;77.12
49999;BME280;68071;45.062;7.356;2023-07-28T08:40:09;95021.56;;;22.95;73.79
49999;BME280;68071;45.062;7.356;2023-07-28T08:43:15;95020.41;;;22.87;74.83
49999;BME280;68071;45.062;7.356;2023-07-28T08:46:20;95030.69;;;22.70;78.70
49999;BME280;68071;45.062;7.356;2023-07-28T08:49:24;95022.19;;;22.64;80.33
49999;BME280;68071;45.062;7.356;2023-07-28T08:52:28;95022.19;;;22.85;78.73
49999;BME280;68071;45.062;7.356;2023-07-28T08:55:32;95016.16;;;23.18;75.29
49999;BME280;68071;45.062;7.356;2023-07-28T08:58:37;95014.50;;;23.26;79.50
49999;BME280;68071;45.062;7.356;2023-07-28T09:01:41;95010.97;;;22.70;78.71
49999;BME280;68071;45.062;7.356;2023-07-28T09:04:47;95012.88;;;22.58;79.76
49999;BME280;68071;45.062;7.356;2023-07-28T09:07:51;95026.06;;;22.87;74.77
49999;BME280;68071;45.062;7.356;2023-07-28T09:10:55;95025.34;;;23.13;75.36
49999;BME280;68071;45.062;7.356;2023-07-28T09:14:00;95032.53;;;23.35;72.59
49999;BME280;68071;45.062;7.356;2023-07-28T09:17:12;95032.69;;;23.52;72.77
49999;BME280;68071;45.062;7.356;2023-07-28T09:20:20;95031.31;;;23.68;71.05
49999;BME280;68071;45.062;7.356;2023-07-28T09:23:29;95028.00;;;23.02;65.82
49999;BME280;68071;45.062;7.356;2023-07-28T09:26:44;95018.19;;;23.65;72.87
49999;BME280;68071;45.062;7.356;2023-07-28T09:29:53;95017.88;;;24.15;69.10
49999;BME280;68071;45.062;7.356;2023-07-28T09:33:01;95026.81;;;24.46;64.53
49999;BME280;68071;45.062;7.356;2023-07-28T09:36:13;95028.94;;;23.61;69.10
49999;BME280;68071;45.062;7.356;2023-07-28T09:39:19;95033.66;;;23.75;68.55
49999;BME280;68071;45.062;7.356;2023-07-28T09:42:24;95026.31;;;24.10;71.53
49999;BME280;68071;45.062;7.356;2023-07-28T09:45:30;95017.56;;;24.45;63.14
49999;BME280;68071;45.062;7.356;2023-07-28T09:48:37;95014.03;;;24.19;69.85
49999;BME280;68071;45.062;7.356;2023-07-28T09:51:48;95009.16;;;25.12;67.24
49999;BME280;68071;45.062;7.356;2023-07-28T09:54:55;95020.59;;;24.42;69.30
49999;BME280;68071;45.062;7.356;2023-07-28T09:58:04;95023.69;;;24.76;62.14
49999;BME280;68071;45.062;7.356;2023-07-28T10:01:09;95028.84;;;24.89;62.23
49999;BME280;68071;45.062;7.356;2023-07-28T10:04:14;95023.69;;;24.38;62.59
49999;BME280;68071;45.062;7.356;2023-07-28T10:07:19;95028.25;;;24.73;61.68
49999;BME280;68071;45.062;7.356;2023-07-28T10:10:23;95031.22;;;24.96;64.09
49999;BME280;68071;45.062;7.356;2023-07-28T10:13:27;95034.31;;;25.04;65.58
49999;BME280;68071;45.062;7.356;2023-07-28T10:16:39;95037.34;;;25.55;59.27
49999;BME280;68071;45.062;7.356;2023-07-28T10:19:43;95030.28;;;25.22;63.27
49999;BME280;68071;45.062;7.356;2023-07-28T10:22:47;95024.56;;;25.11;62.00
49999;BME280;68071;45.062;7.356;2023-07-28T10:25:58;95013.78;;;25.09;63.41
49999;BME280;68071;45.062;7.356;2023-07-28T10:29:11;95005.94;;;24.75;65.16
49999;BME280;68071;45.062;7.356;2023-07-28T10:32:26;94998.69;;;25.41;64.62
49999;BME280;68071;45.062;7.356;2023-07-28T10:35:32;95002.13;;;25.79;61.10
49999;BME280;68071;45.062;7.356;2023-07-28T10:38:37;94997.38;;;25.36;62.80
49999;BME280;68071;45.062;7.356;2023-07-28T10:45:05;95006.50;;;25.91;59.70
49999;BME280;68071;45.062;7.356;2023-07-28T10:48:09;95000.06;;;25.68;61.05
49999;BME280;68071;45.062;7.356;2023-07-28T10:51:23;95013.06;;;25.37;63.39
49999;BME280;68071;45.062;7.356;2023-07-28T10:54:36;95011.53;;;25.30;60.91
49999;BME280;68071;45.062;7.356;2023-07-28T10:57:43;95020.97;;;25.04;61.85
49999;BME280;68071;45.062;7.356;2023-07-28T11:00:50;95017.94;;;25.25;61.17
49999;BME280;68071;45.062;7.356;2023-07-28T11:03:54;95027.91;;;25.09;63.49
49999;BME280;68071;45.062;7.356;2023-07-28T11:06:58;95023.38;;;25.34;62.02
49999;BME280;68071;45.062;7.356;2023-07-28T11:10:02;95025.91;;;25.21;61.27
49999;BME280;68071;45.062;7.356;2023-07-28T11:13:07;95024.53;;;26.00;57.87
49999;BME280;68071;45.062;7.356;2023-07-28T11:16:11;95015.22;;;25.82;62.96
49999;BME280;68071;45.062;7.356;2023-07-28T11:19:16;95015.78;;;26.20;56.07
49999;BME280;68071;45.062;7.356;2023-07-28T11:22:22;95013.19;;;26.34;55.94
49999;BME280;68071;45.062;7.356;2023-07-28T11:25:28;95005.97;;;26.44;56.75
49999;BME280;68071;45.062;7.356;2023-07-28T11:28:33;95002.75;;;26.93;61.06
49999;BME280;68071;45.062;7.356;2023-07-28T11:31:37;94996.44;;;26.30;54.90
49999;BME280;68071;45.062;7.356;2023-07-28T11:34:41;95003.09;;;26.50;55.09
49999;BME280;68071;45.062;7.356;2023-07-28T11:37:49;95007.00;;;26.07;56.13
49999;BME280;68071;45.062;7.356;2023-07-28T11:40:57;94996.44;;;25.96;59.67
49999;BME280;68071;45.062;7.356;2023-07-28T11:44:01;94992.59;;;25.71;56.30
49999;BME280;68071;45.062;7.356;2023-07-28T11:47:06;94996.47;;;26.07;54.29
49999;BME280;68071;45.062;7.356;2023-07-28T11:50:10;94998.28;;;26.16;57.25
49999;BME280;68071;45.062;7.356;2023-07-28T11:53:13;94987.94;;;26.24;55.30
49999;BME280;68071;45.062;7.356;2023-07-28T11:56:17;94983.03;;;26.53;51.95
49999;BME280;68071;45.062;7.356;2023-07-28T11:59:21;94985.97;;;27.01;50.45
49999;BME280;68071;45.062;7.356;2023-07-28T12:02:27;94983.59;;;26.18;55.63
49999;BME280;68071;45.062;7.356;2023-07-28T12:05:32;94979.72;;;25.70;51.78
49999;BME280;68071;45.062;7.356;2023-07-28T12:08:39;94975.66;;;24.87;54.41
49999;BME280;68071;45.062;7.356;2023-07-28T12:11:45;94966.59;;;26.06;68.57
49999;BME280;68071;45.062;7.356;2023-07-28T12:14:50;94975.53;;;26.56;55.36
49999;BME280;68071;45.062;7.356;2023-07-28T12:18:08;94981.91;;;26.73;55.50
49999;BME280;68071;45.062;7.356;2023-07-28T12:21:12;94973.34;;;27.50;50.08
49999;BME280;68071;45.062;7.356;2023-07-28T12:24:18;94974.91;;;27.39;49.66
49999;BME280;68071;45.062;7.356;2023-07-28T12:27:22;94969.56;;;26.71;51.59
49999;BME280;68071;45.062;7.356;2023-07-28T12:30:28;94976.72;;;26.89;51.63
49999;BME280;68071;45.062;7.356;2023-07-28T12:33:32;94972.56;;;27.01;49.46
49999;BME280;68071;45.062;7.356;2023-07-28T12:36:36;94969.00;;;26.90;55.44
49999;BME280;68071;45.062;7.356;2023-07-28T12:39:40;94964.53;;;25.61;55.13
49999;BME280;68071;45.062;7.356;2023-07-28T12:42:44;94965.81;;;25.60;53.75
49999;BME280;68071;45.062;7.356;2023-07-28T12:45:48;94961.84;;;24.52;54.97
49999;BME280;68071;45.062;7.356;2023-07-28T12:48:52;94959.56;;;24.56;58.64
49999;BME280;68071;45.062;7.356;2023-07-28T12:51:57;94958.88;;;25.61;56.64
49999;BME280;68071;45.062;7.356;2023-07-28T12:55:02;94959.38;;;25.48;60.84
49999;BME280;68071;45.062;7.356;2023-07-28T12:58:06;94956.53;;;26.11;54.63
49999;BME280;68071;45.062;7.356;2023-07-28T13:01:10;94945.81;;;26.85;53.27
49999;BME280;68071;45.062;7.356;2023-07-28T13:04:15;94958.03;;;26.46;59.05
49999;BME280;68071;45.062;7.356;2023-07-28T13:07:19;94951.53;;;26.63;53.67
49999;BME280;68071;45.062;7.356;2023-07-28T13:10:23;94952.56;;;26.71;52.13
49999;BME280;68071;45.062;7.356;2023-07-28T13:13:27;94950.91;;;25.43;51.23
49999;BME280;68071;45.062;7.356;2023-07-28T13:16:33;94951.38;;;25.47;53.34
49999;BME280;68071;45.062;7.356;2023-07-28T13:19:38;94954.22;;;26.21;55.57
49999;BME280;68071;45.062;7.356;2023-07-28T13:22:42;94947.69;;;26.60;49.64
49999;BME280;68071;45.062;7.356;2023-07-28T13:25:46;94939.03;;;27.47;49.18
49999;BME280;68071;45.062;7.356;2023-07-28T13:28:49;94938.81;;;27.40;49.91
49999;BME280;68071;45.062;7.356;2023-07-28T13:31:57;94942.41;;;27.40;49.36
49999;BME280;68071;45.062;7.356;2023-07-28T13:35:02;94956.03;;;26.07;50.51
49999;BME280;68071;45.062;7.356;2023-07-28T13:38:07;94948.78;;;26.46;51.53
49999;BME280;68071;45.062;7.356;2023-07-28T13:41:11;94947.22;;;26.45;50.11
49999;BME280;68071;45.062;7.356;2023-07-28T13:44:15;94940.38;;;27.71;52.11
49999;BME280;68071;45.062;7.356;2023-07-28T13:47:20;94947.91;;;27.69;52.21
49999;BME280;68071;45.062;7.356;2023-07-28T13:50:23;94943.97;;;28.58;47.02
49999;BME280;68071;45.062;7.356;2023-07-28T13:53:27;94949.25;;;26.55;47.16
49999;BME280;68071;45.062;7.356;2023-07-28T13:56:32;94942.06;;;26.43;53.62
49999;BME280;68071;45.062;7.356;2023-07-28T13:59:36;94926.53;;;26.67;50.90
49999;BME280;68071;45.062;7.356;2023-07-28T14:02:40;94934.53;;;27.22;49.25
49999;BME280;68071;45.062;7.356;2023-07-28T14:05:44;94922.25;;;27.02;49.21
49999;BME280;68071;45.062;7.356;2023-07-28T14:08:48;94917.81;;;27.54;50.23
49999;BME280;68071;45.062;7.356;2023-07-28T14:11:52;94928.19;;;27.04;52.26
49999;BME280;68071;45.062;7.356;2023-07-28T14:14:56;94930.25;;;27.45;49.64
49999;BME280;68071;45.062;7.356;2023-07-28T14:18:00;94926.41;;;27.79;49.62
49999;BME280;68071;45.062;7.356;2023-07-28T14:21:04;94926.53;;;28.48;48.31
49999;BME280;68071;45.062;7.356;2023-07-28T14:24:07;94911.69;;;28.11;45.87
49999;BME280;68071;45.062;7.356;2023-07-28T14:27:11;94909.59;;;28.36;45.79
49999;BME280;68071;45.062;7.356;2023-07-28T14:30:16;94914.31;;;28.03;49.10
49999;BME280;68071;45.062;7.356;2023-07-28T14:33:19;94913.00;;;28.04;51.08
49999;BME280;68071;45.062;7.356;2023-07-28T14:36:23;94910.25;;;28.23;46.67
49999;BME280;68071;45.062;7.356;2023-07-28T14:39:27;94905.44;;;26.56;50.49
49999;BME280;68071;45.062;7.356;2023-07-28T14:42:31;94907.84;;;27.00;52.91
49999;BME280;68071;45.062;7.356;2023-07-28T14:45:35;94909.00;;;28.19;48.28
49999;BME280;68071;45.062;7.356;2023-07-28T14:48:39;94912.19;;;28.84;50.28
49999;BME280;68071;45.062;7.356;2023-07-28T14:51:43;94915.47;;;29.26;49.67
49999;BME280;68071;45.062;7.356;2023-07-28T14:54:46;94912.69;;;29.21;51.99
49999;BME280;68071;45.062;7.356;2023-07-28T14:57:50;94905.78;;;29.16;53.50
49999;BME280;68071;45.062;7.356;2023-07-28T15:00:55;94909.00;;;29.07;52.22
49999;BME280;68071;45.062;7.356;2023-07-28T15:03:59;94909.03;;;28.88;50.02
49999;BME280;68071;45.062;7.356;2023-07-28T15:07:06;94901.38;;;28.33;52.17
49999;BME280;68071;45.062;7.356;2023-07-28T15:10:11;94898.78;;;29.17;45.88
49999;BME280;68071;45.062;7.356;2023-07-28T15:13:16;94899.13;;;27.95;50.92
49999;BME280;68071;45.062;7.356;2023-07-28T15:16:19;94890.41;;;29.06;47.03
49999;BME280;68071;45.062;7.356;2023-07-28T15:19:23;94896.69;;;29.69;44.67
49999;BME280;68071;45.062;7.356;2023-07-28T15:22:27;94898.81;;;30.15;46.10
49999;BME280;68071;45.062;7.356;2023-07-28T15:25:31;94907.34;;;30.15;46.89
49999;BME280;68071;45.062;7.356;2023-07-28T15:28:35;94903.31;;;30.37;48.48
49999;BME280;68071;45.062;7.356;2023-07-28T15:31:39;94906.31;;;30.58;42.75
49999;BME280;68071;45.062;7.356;2023-07-28T15:34:43;94904.75;;;30.71;44.23
49999;BME280;68071;45.062;7.356;2023-07-28T15:37:47;94912.19;;;30.47;42.91
49999;BME280;68071;45.062;7.356;2023-07-28T15:40:51;94899.25;;;29.73;47.87
49999;BME280;68071;45.062;7.356;2023-07-28T15:44:00;94906.38;;;29.47;46.92
49999;BME280;68071;45.062;7.356;2023-07-28T15:47:04;94905.72;;;28.83;46.79
49999;BME280;68071;45.062;7.356;2023-07-28T15:50:08;94900.56;;;28.82;46.82
49999;BME280;68071;45.062;7.356;2023-07-28T15:53:12;94905.19;;;29.75;44.65
49999;BME280;68071;45.062;7.356;2023-07-28T15:56:17;94907.44;;;29.63;45.44
49999;BME280;68071;45.062;7.356;2023-07-28T15:59:21;94911.09;;;30.23;42.99
49999;BME280;68071;45.062;7.356;2023-07-28T16:02:25;94906.78;;;30.97;42.44
49999;BME280;68071;45.062;7.356;2023-07-28T16:05:29;94908.31;;;31.25;40.30
49999;BME280;68071;45.062;7.356;2023-07-28T16:08:33;94902.69;;;30.58;42.48
49999;BME280;68071;45.062;7.356;2023-07-28T16:11:37;94895.91;;;29.55;45.72
49999;BME280;68071;45.062;7.356;2023-07-28T16:14:41;94895.31;;;26.84;53.65
49999;BME280;68071;45.062;7.356;2023-07-28T16:17:45;94896.41;;;27.17;55.24